createdAt,value
2022-12-23T00:00:16.664Z,0.00
2022-12-23T00:05:19.681Z,0.00
2022-12-23T00:10:19.795Z,0.00
2022-12-23T00:15:19.762Z,0.00
2022-12-23T00:20:16.704Z,0.00
2022-12-23T00:25:19.753Z,0.00
2022-12-23T00:30:19.923Z,0.00
2022-12-23T00:35:19.695Z,0.00
2022-12-23T00:40:19.734Z,0.00
2022-12-23T00:45:19.706Z,0.01
2022-12-23T00:50:16.672Z,0.01
2022-12-23T00:55:16.775Z,0.01
2022-12-23T01:00:19.966Z,0.02
2022-12-23T01:05:19.759Z,0.02
2022-12-23T01:10:19.771Z,0.02
2022-12-23T01:15:19.888Z,0.02
2022-12-23T01:20:19.842Z,0.02
2022-12-23T01:25:19.766Z,0.02
2022-12-23T01:30:19.877Z,0.03
2022-12-23T01:35:19.847Z,0.04
2022-12-23T01:40:17.027Z,0.05
2022-12-23T01:45:16.786Z,0.05
2022-12-23T01:50:19.900Z,0.06
2022-12-23T01:55:19.957Z,0.06
2022-12-23T02:00:19.864Z,0.06
2022-12-23T02:05:19.915Z,0.07
2022-12-23T02:10:20.003Z,0.08
2022-12-23T02:15:19.932Z,0.09
2022-12-23T02:20:19.946Z,0.10
2022-12-23T02:25:19.986Z,0.11
2022-12-23T02:30:19.952Z,0.11
2022-12-23T02:35:16.828Z,0.11
2022-12-23T02:40:16.905Z,0.11
2022-12-23T02:45:20.082Z,0.11
2022-12-23T02:50:19.995Z,0.11
2022-12-23T02:55:20.002Z,0.13
2022-12-23T03:00:20.052Z,0.13
2022-12-23T03:05:20.043Z,0.13
2022-12-23T03:10:20.036Z,0.13
2022-12-23T03:15:20.004Z,0.13
2022-12-23T03:20:20.171Z,0.13
2022-12-23T03:25:20.075Z,0.13
2022-12-23T03:30:16.955Z,0.13
2022-12-23T03:35:20.143Z,0.13
2022-12-23T03:40:20.155Z,0.13
2022-12-23T03:45:38.262Z,0.13
2022-12-23T03:50:20.109Z,0.13
2022-12-23T03:55:20.190Z,0.12
2022-12-23T04:00:20.161Z,0.12
2022-12-23T04:05:20.151Z,0.11
2022-12-23T04:10:20.754Z,0.10
2022-12-23T04:15:20.126Z,0.09
2022-12-23T04:20:17.105Z,0.09
2022-12-23T04:25:17.056Z,0.08
2022-12-23T04:30:20.360Z,0.08
2022-12-23T04:35:20.282Z,0.07
2022-12-23T04:40:20.281Z,0.07
2022-12-23T04:45:20.217Z,0.06
2022-12-23T04:50:20.262Z,0.05
2022-12-23T04:55:20.282Z,0.04
2022-12-23T05:00:19.603Z,0.03
2022-12-23T05:05:19.583Z,0.04
2022-12-23T05:10:19.540Z,0.04
2022-12-23T05:15:19.570Z,0.06
2022-12-23T05:20:19.587Z,0.07
2022-12-23T05:25:19.541Z,0.09
2022-12-23T05:30:16.386Z,0.10
2022-12-23T05:35:16.525Z,0.13
2022-12-23T05:40:23.625Z,0.14
2022-12-23T05:45:19.629Z,0.17
2022-12-23T05:50:19.610Z,0.20
2022-12-23T05:55:19.606Z,0.21
2022-12-23T06:00:19.645Z,0.23
2022-12-23T06:05:19.775Z,0.25
2022-12-23T06:10:19.645Z,0.28
2022-12-23T06:15:19.688Z,0.29
2022-12-23T06:20:20.801Z,0.29
2022-12-23T06:25:16.589Z,0.29
2022-12-23T06:30:19.742Z,0.30
2022-12-23T06:35:19.672Z,0.29
2022-12-23T06:40:19.745Z,0.29
2022-12-23T06:45:19.667Z,0.28
2022-12-23T06:50:19.892Z,0.27
2022-12-23T06:55:19.714Z,0.28
2022-12-23T07:00:19.697Z,0.29
2022-12-23T07:05:19.759Z,0.28
2022-12-23T07:10:19.808Z,0.27
2022-12-23T07:15:16.688Z,0.28
2022-12-23T07:20:16.698Z,0.28
2022-12-23T07:25:19.924Z,0.27
2022-12-23T07:30:19.816Z,0.26
2022-12-23T07:35:19.835Z,0.27
2022-12-23T07:40:19.858Z,0.27
2022-12-23T07:45:19.821Z,0.27
2022-12-23T07:50:19.962Z,0.28
2022-12-23T07:55:19.964Z,0.29
2022-12-23T08:00:19.856Z,0.29
2022-12-23T08:05:20.040Z,0.31
2022-12-23T08:10:16.648Z,0.33
2022-12-23T08:15:16.804Z,0.33
2022-12-23T08:20:19.866Z,0.34
2022-12-23T08:25:19.871Z,0.36
2022-12-23T08:30:20.014Z,0.38
2022-12-23T08:35:19.968Z,0.37
2022-12-23T08:40:19.860Z,0.37
2022-12-23T08:45:19.956Z,0.36
2022-12-23T08:50:19.968Z,0.35
2022-12-23T08:55:19.934Z,0.33
2022-12-23T09:00:16.871Z,0.32
2022-12-23T09:05:16.989Z,0.31
2022-12-23T09:10:19.947Z,0.29
2022-12-23T09:15:19.962Z,0.28
2022-12-23T09:20:19.979Z,0.28
2022-12-23T09:25:20.062Z,0.27
2022-12-23T09:30:20.065Z,0.26
2022-12-23T09:35:20.093Z,0.26
2022-12-23T09:40:20.138Z,0.25
2022-12-23T09:45:20.091Z,0.26
2022-12-23T09:50:20.246Z,0.26
2022-12-23T09:55:16.975Z,0.28
2022-12-23T10:00:16.924Z,0.28
2022-12-23T10:05:20.102Z,0.26
2022-12-23T10:10:20.377Z,0.25
2022-12-23T10:15:20.131Z,0.23
2022-12-23T10:20:20.167Z,0.20
2022-12-23T10:25:20.180Z,0.19
2022-12-23T10:30:53.798Z,0.16
2022-12-23T10:35:20.114Z,0.15
2022-12-23T10:40:20.161Z,0.14
2022-12-23T10:45:17.067Z,0.12
2022-12-23T10:50:17.151Z,0.12
2022-12-23T10:55:20.371Z,0.10
2022-12-23T11:00:20.341Z,0.09
2022-12-23T11:05:20.206Z,0.09
2022-12-23T11:10:20.253Z,0.09
2022-12-23T11:15:20.270Z,0.09
2022-12-23T11:20:20.266Z,0.09
2022-12-23T11:25:20.293Z,0.08
2022-12-23T11:30:20.286Z,0.08
2022-12-23T11:35:20.334Z,0.07
2022-12-23T11:40:17.209Z,0.07
2022-12-23T11:45:17.266Z,0.07
2022-12-23T11:50:20.544Z,0.05
2022-12-23T11:55:20.298Z,0.05
2022-12-23T12:00:20.362Z,0.04
2022-12-23T12:05:20.272Z,0.03
2022-12-23T12:10:20.385Z,0.03
2022-12-23T12:15:20.482Z,0.02
2022-12-23T12:20:20.300Z,0.02
2022-12-23T12:25:20.506Z,0.03
2022-12-23T12:30:20.431Z,0.04
2022-12-23T12:35:17.363Z,0.07
2022-12-23T12:40:17.453Z,0.09
2022-12-23T12:45:20.601Z,0.12
2022-12-23T12:50:20.469Z,0.16
2022-12-23T12:55:20.500Z,0.18
2022-12-23T13:00:20.475Z,0.22
2022-12-23T13:05:20.407Z,0.23
2022-12-23T13:10:20.437Z,0.24
